KMHE/MHE METAR and TAF weather

Enter ICAO airport designator
Station Type Date Time Source
KMHE METAR 2020/01/27 16:53 UTC NOAA

KMHE 271653Z AUTO 36008KT 6SM BR OVC004 M06/M07 A3014 RMK AO2 SLP222 T10561072


Station Type Date Time Source
KMHE Decoded METAR 2020/01/27 16:53 UTC NOAA

MITCHELL MUNICIPAL AIRPORT, SD, United States (KMHE) 43-46N 98-02W
Jan 27, 2020 - 11:53 AM EST / 2020.01.27 1653 UTC
Wind: from the N (360 degrees) at 9 MPH (8 KT):0
Visibility: 6 mile(s):0
Sky conditions: overcast
Weather: mist
Temperature: 21.9 F (-5.6 C)
Windchill: 12 F (-11 C):1
Dew Point: 19.0 F (-7.2 C)
Relative Humidity: 88%
Pressure (altimeter): 30.14 in. Hg (1020 hPa)
ob: KMHE 271653Z AUTO 36008KT 6SM BR OVC004 M06/M07 A3014 RMK AO2 SLP222 T10561072
cycle: 17

Station Type Date Time Source
KMHE TAF UTC NOAA

Error!

Example: see airport list